Time;durP1;ratioP1;P1;durP2;ratioP2;P2;SDS_P1;SDS_P2;PMS_P1;PMS_P2;Temp;Humidity;BMP_temperature;BMP_pressure;BME280_temperature;BME280_humidity;BME280_pressure;Samples;Min_cycle;Max_cycle;Signal;HPM_P1;HPM_P2
2023/03/27 00:00:07;;;;;;;1.73;0.70;;;9.90;99.90;;;;;;5097535;28;20028;-72
2023/03/27 00:02:33;;;;;;;2.20;0.80;;;9.90;99.90;;;;;;5096927;28;20414;-72
2023/03/27 00:05:00;;;;;;;2.85;0.95;;;9.90;99.90;;;;;;5097800;28;20032;-73
2023/03/27 00:07:26;;;;;;;1.38;0.68;;;9.90;99.90;;;;;;5098910;28;20027;-73
2023/03/27 00:09:52;;;;;;;2.92;0.85;;;9.80;99.90;;;;;;5097824;28;20020;-73
2023/03/27 00:12:17;;;;;;;3.95;0.80;;;9.80;99.90;;;;;;5097510;28;20024;-73
2023/03/27 00:14:44;;;;;;;3.63;1.05;;;9.80;99.90;;;;;;5078162;28;20027;-72
2023/03/27 00:17:10;;;;;;;1.40;0.70;;;9.70;99.90;;;;;;5078289;28;20383;-72
2023/03/27 00:19:36;;;;;;;1.40;0.95;;;9.70;99.90;;;;;;5078054;28;20206;-72
2023/03/27 00:22:02;;;;;;;1.55;0.60;;;9.70;99.90;;;;;;5078361;28;20031;-72
2023/03/27 00:24:28;;;;;;;2.47;0.90;;;9.70;99.90;;;;;;5096722;28;20125;-72
2023/03/27 00:26:53;;;;;;;1.77;0.93;;;9.70;99.90;;;;;;5077898;28;20055;-73
2023/03/27 00:29:19;;;;;;;2.10;1.10;;;9.70;99.90;;;;;;5078217;28;20055;-73
2023/03/27 00:31:45;;;;;;;1.15;1.02;;;9.60;99.90;;;;;;5078170;28;20077;-72
2023/03/27 00:34:11;;;;;;;1.48;0.73;;;9.60;99.90;;;;;;5078146;28;20447;-72
2023/03/27 00:36:36;;;;;;;1.35;1.05;;;9.60;99.90;;;;;;5077912;28;20105;-72
2023/03/27 00:39:03;;;;;;;1.25;0.90;;;9.60;99.90;;;;;;5095843;28;20107;-73
2023/03/27 00:41:29;;;;;;;1.35;0.95;;;9.60;99.90;;;;;;5096373;28;20480;-72
2023/03/27 00:43:57;;;;;;;3.13;1.10;;;9.60;99.90;;;;;;5078013;28;20024;-73
2023/03/27 00:46:43;;;;;;;1.23;1.15;;;9.50;99.90;;;;;;5096028;28;20020;-72
2023/03/27 00:49:12;;;;;;;1.63;1.15;;;9.60;99.90;;;;;;5077890;28;20024;-72
2023/03/27 00:51:41;;;;;;;1.52;1.10;;;9.50;99.90;;;;;;5077665;28;20052;-72
2023/03/27 00:54:08;;;;;;;1.80;1.15;;;9.40;99.90;;;;;;5096316;28;20054;-73
2023/03/27 00:56:37;;;;;;;1.92;1.17;;;9.40;99.90;;;;;;5095769;28;20036;-72
2023/03/27 00:59:09;;;;;;;1.35;1.15;;;9.40;99.90;;;;;;5077693;28;20028;-72
2023/03/27 01:01:35;;;;;;;0.75;0.70;;;9.40;99.90;;;;;;5095843;28;20421;-72
2023/03/27 01:04:05;;;;;;;2.05;1.02;;;9.30;99.90;;;;;;5077539;28;20024;-72
2023/03/27 01:06:31;;;;;;;1.92;0.65;;;9.30;99.90;;;;;;5095282;28;20039;-72
2023/03/27 01:08:57;;;;;;;1.08;0.70;;;9.20;99.90;;;;;;5077464;28;20448;-73
2023/03/27 01:11:23;;;;;;;2.22;1.13;;;9.20;99.90;;;;;;5095726;28;20039;-72
2023/03/27 01:13:57;;;;;;;0.45;0.45;;;9.10;99.90;;;;;;5077210;28;20051;-73
2023/03/27 01:16:40;;;;;;;0.95;0.50;;;9.10;99.90;;;;;;5077402;28;20035;-72
2023/03/27 01:19:09;;;;;;;0.50;0.50;;;9.00;99.90;;;;;;5077613;28;20122;-72
2023/03/27 01:21:37;;;;;;;0.28;0.28;;;9.00;99.90;;;;;;5095437;28;20483;-72
2023/03/27 01:24:10;;;;;;;0.77;0.32;;;8.90;99.90;;;;;;5077424;28;20024;-72
2023/03/27 01:26:56;;;;;;;3.83;0.20;;;8.80;99.90;;;;;;5095411;28;20028;-73
2023/03/27 01:29:47;;;;;;;0.90;0.50;;;8.80;99.90;;;;;;5077396;28;20024;-73
2023/03/27 01:32:35;;;;;;;0.50;0.50;;;8.80;99.90;;;;;;5076582;28;20456;-73
2023/03/27 01:35:05;;;;;;;0.63;0.63;;;8.70;99.90;;;;;;5095078;28;20028;-72
2023/03/27 01:37:33;;;;;;;;;;;8.60;99.90;;;;;;5077882;28;20499;-72
2023/03/27 01:40:19;;;;;;;1.95;0.60;;;8.60;99.90;;;;;;5077406;28;19908;-72
2023/03/27 01:42:58;;;;;;;1.17;0.57;;;8.50;99.90;;;;;;5095297;28;20132;-72
2023/03/27 01:45:45;;;;;;;1.15;0.40;;;8.50;99.90;;;;;;5077100;28;20024;-72
2023/03/27 01:48:14;;;;;;;0.70;0.70;;;8.50;99.90;;;;;;5095648;28;20371;-73
2023/03/27 01:50:46;;;;;;;0.50;0.50;;;8.50;99.90;;;;;;5095300;28;20028;-72
2023/03/27 01:53:29;;;;;;;0.38;0.38;;;8.40;99.90;;;;;;5095396;28;20116;-73
2023/03/27 01:56:17;;;;;;;0.57;0.57;;;8.40;99.90;;;;;;5095297;28;20135;-72
2023/03/27 01:58:46;;;;;;;0.65;0.60;;;8.30;99.90;;;;;;5094899;28;20488;-72
2023/03/27 02:01:21;;;;;;;1.00;0.90;;;8.30;99.90;;;;;;5094637;28;20077;-72
2023/03/27 02:03:50;;;;;;;0.60;0.60;;;8.30;99.90;;;;;;5076314;28;20035;-72
2023/03/27 02:06:30;;;;;;;1.73;1.23;;;8.20;99.90;;;;;;5094816;28;20051;-72
2023/03/27 02:09:04;;;;;;;1.13;1.13;;;8.20;99.90;;;;;;5094553;28;20024;-73
2023/03/27 02:11:43;;;;;;;1.63;1.52;;;8.20;99.90;;;;;;5076476;28;20028;-72
2023/03/27 02:14:14;;;;;;;4.38;1.70;;;8.20;99.90;;;;;;5094779;28;20035;-72
2023/03/27 02:16:44;;;;;;;1.80;1.70;;;8.10;99.90;;;;;;5076694;28;20086;-72
2023/03/27 02:19:22;;;;;;;1.92;1.80;;;8.10;99.90;;;;;;5076843;28;20391;-73
2023/03/27 02:21:48;;;;;;;2.30;2.13;;;8.10;99.90;;;;;;5094361;28;20024;-72
2023/03/27 02:24:17;;;;;;;1.67;1.58;;;8.10;99.90;;;;;;5076751;28;20028;-72
2023/03/27 02:26:44;;;;;;;1.70;1.60;;;8.00;99.90;;;;;;5076114;28;20388;-72
2023/03/27 02:29:39;;;;;;;1.65;1.55;;;8.00;99.90;;;;;;5076127;28;20027;-72
2023/03/27 02:32:17;;;;;;;3.20;1.63;;;8.00;99.90;;;;;;5089344;28;20036;-72
2023/03/27 02:34:49;;;;;;;1.23;1.23;;;8.00;99.90;;;;;;5076099;28;20028;-73
2023/03/27 02:37:46;;;;;;;2.08;1.48;;;7.90;99.90;;;;;;5093775;28;20028;-72
2023/03/27 02:40:39;;;;;;;1.35;1.35;;;7.90;99.90;;;;;;5094521;28;20524;-72
2023/03/27 02:43:30;;;;;;;2.08;1.42;;;7.90;99.90;;;;;;5075977;28;20118;-72
2023/03/27 02:46:04;;;;;;;2.53;1.48;;;7.90;99.90;;;;;;5076146;28;20028;-72
2023/03/27 02:48:50;;;;;;;1.00;1.00;;;7.80;99.90;;;;;;5075938;28;20025;-72
2023/03/27 02:51:35;;;;;;;0.95;0.95;;;7.80;99.90;;;;;;5076216;28;20460;-72
2023/03/27 02:54:21;;;;;;;0.70;0.70;;;7.80;99.90;;;;;;5076316;28;20127;-72
2023/03/27 02:56:53;;;;;;;0.77;0.77;;;7.80;99.90;;;;;;5075715;28;20032;-72
2023/03/27 02:59:27;;;;;;;0.57;0.57;;;7.70;99.90;;;;;;5093933;28;20507;-71
2023/03/27 03:01:53;;;;;;;2.95;0.50;;;7.70;99.90;;;;;;5075827;28;20116;-72
2023/03/27 03:04:57;;;;;;;0.63;0.55;;;7.70;99.90;;;;;;5093588;28;20029;-72
2023/03/27 03:07:25;;;;;;;0.38;0.35;;;7.70;99.90;;;;;;5070658;28;20123;-72
2023/03/27 03:09:52;;;;;;;0.40;0.40;;;7.70;99.90;;;;;;5094399;28;20028;-72
2023/03/27 03:12:18;;;;;;;1.42;0.50;;;7.60;99.90;;;;;;5093727;28;20102;-72
2023/03/27 03:14:44;;;;;;;1.13;0.50;;;7.60;99.90;;;;;;5075911;28;20028;-72
2023/03/27 03:17:14;;;;;;;0.20;0.20;;;7.60;99.90;;;;;;5093741;28;20464;-72
2023/03/27 03:19:40;;;;;;;0.55;0.20;;;7.50;99.90;;;;;;5095046;28;20115;-72
2023/03/27 03:22:07;;;;;;;0.25;0.25;;;7.50;99.90;;;;;;5094659;28;20063;-72
2023/03/27 03:24:34;;;;;;;0.40;0.40;;;7.50;99.90;;;;;;5094457;28;20020;-72
2023/03/27 03:27:02;;;;;;;0.50;0.50;;;7.50;99.90;;;;;;5076308;28;20032;-72
2023/03/27 03:29:28;;;;;;;0.38;0.38;;;7.50;99.90;;;;;;5075858;28;20020;-72
2023/03/27 03:31:55;;;;;;;0.80;0.32;;;7.40;99.90;;;;;;5075502;28;20028;-72
2023/03/27 03:34:21;;;;;;;0.80;0.45;;;7.40;99.90;;;;;;5093971;28;20035;-72
2023/03/27 03:36:47;;;;;;;0.63;0.32;;;7.30;99.90;;;;;;5075384;28;20383;-72
2023/03/27 03:39:14;;;;;;;2.17;0.52;;;7.30;99.90;;;;;;5075399;28;20653;-72
2023/03/27 03:41:41;;;;;;;1.67;0.28;;;7.30;99.90;;;;;;5093774;28;20086;-72
2023/03/27 03:44:07;;;;;;;0.38;0.38;;;7.30;99.90;;;;;;5093589;28;20032;-72
2023/03/27 03:46:33;;;;;;;0.90;0.60;;;7.30;99.90;;;;;;5075229;28;20038;-72
2023/03/27 03:48:59;;;;;;;0.75;0.75;;;7.30;99.90;;;;;;5075320;28;20024;-72
2023/03/27 03:51:25;;;;;;;0.70;0.70;;;7.20;99.90;;;;;;5075474;28;20028;-72
2023/03/27 03:53:50;;;;;;;0.80;0.80;;;7.20;99.90;;;;;;5075177;28;20052;-72
2023/03/27 03:56:17;;;;;;;1.20;0.90;;;7.20;99.90;;;;;;5078733;28;20105;-72
2023/03/27 03:58:43;;;;;;;0.95;0.90;;;7.20;99.90;;;;;;5096989;28;20024;-72
2023/03/27 04:01:09;;;;;;;0.70;0.70;;;7.10;99.90;;;;;;5097194;28;20444;-71
2023/03/27 04:03:34;;;;;;;0.85;0.70;;;7.10;99.90;;;;;;5078810;28;20028;-72
2023/03/27 04:06:03;;;;;;;2.25;0.90;;;7.10;99.90;;;;;;5078745;28;20024;-72
2023/03/27 04:08:30;;;;;;;;;;;7.10;99.90;;;;;;5078999;28;20032;-72
2023/03/27 04:10:56;;;;;;;2.13;1.10;;;7.00;99.90;;;;;;5078729;28;19911;-73
2023/03/27 04:13:22;;;;;;;0.70;0.70;;;7.10;99.90;;;;;;5078461;28;20028;-73
2023/03/27 04:15:47;;;;;;;1.35;0.60;;;7.10;99.90;;;;;;5078452;28;20028;-73
2023/03/27 04:18:13;;;;;;;0.60;0.60;;;7.10;99.90;;;;;;5078661;28;20038;-73
2023/03/27 04:20:40;;;;;;;0.75;0.60;;;7.00;99.90;;;;;;5096585;28;20028;-72
2023/03/27 04:23:06;;;;;;;0.80;0.50;;;7.00;99.90;;;;;;5096439;28;20024;-71
2023/03/27 04:25:33;;;;;;;0.60;0.60;;;7.00;99.90;;;;;;5078345;28;20130;-71
2023/03/27 04:28:01;;;;;;;0.68;0.50;;;7.00;99.90;;;;;;5078319;28;20028;-72
2023/03/27 04:30:27;;;;;;;0.45;0.45;;;7.00;99.90;;;;;;5096377;28;20052;-73
2023/03/27 04:32:53;;;;;;;0.80;0.43;;;7.00;99.90;;;;;;5078419;28;20028;-74
2023/03/27 04:35:20;;;;;;;0.40;0.40;;;7.00;99.90;;;;;;5078629;28;20107;-73
2023/03/27 04:37:47;;;;;;;1.05;0.70;;;7.00;99.90;;;;;;5078496;28;20028;-72
2023/03/27 04:40:16;;;;;;;0.73;0.73;;;7.00;99.90;;;;;;5078072;28;20036;-73
2023/03/27 04:42:43;;;;;;;0.40;0.40;;;7.00;99.90;;;;;;5096308;28;20028;-73
2023/03/27 04:45:22;;;;;;;0.40;0.40;;;7.00;99.90;;;;;;5078196;28;20058;-72
2023/03/27 04:47:48;;;;;;;0.93;0.25;;;7.00;99.90;;;;;;5095867;28;20514;-73
2023/03/27 04:50:15;;;;;;;0.40;0.40;;;7.00;99.90;;;;;;5077853;28;20464;-73
2023/03/27 04:52:41;;;;;;;0.95;0.20;;;7.00;99.90;;;;;;5096371;28;20052;-76
2023/03/27 04:55:07;;;;;;;0.10;0.10;;;7.00;99.90;;;;;;5096437;28;20035;-78
2023/03/27 04:57:33;;;;;;;1.00;0.22;;;7.00;99.90;;;;;;5078118;28;20059;-76
2023/03/27 05:00:00;;;;;;;1.10;0.52;;;7.00;99.90;;;;;;5096418;28;20032;-74
2023/03/27 05:02:26;;;;;;;0.20;0.20;;;7.00;99.90;;;;;;5077487;28;20024;-74
2023/03/27 05:04:57;;;;;;;0.45;0.20;;;7.00;99.90;;;;;;5076512;28;20028;-75
2023/03/27 05:07:27;;;;;;;1.00;0.25;;;7.00;99.90;;;;;;5093994;28;20027;-75
2023/03/27 05:09:53;;;;;;;0.77;0.20;;;7.00;99.90;;;;;;5094980;28;20020;-75
2023/03/27 05:12:20;;;;;;;2.35;0.20;;;7.00;99.90;;;;;;5076570;28;20030;-74
2023/03/27 05:14:47;;;;;;;1.17;0.13;;;7.00;99.90;;;;;;5076648;28;20557;-75
2023/03/27 05:17:14;;;;;;;1.45;0.25;;;7.00;99.90;;;;;;5094580;28;20418;-75
2023/03/27 05:19:40;;;;;;;0.77;0.30;;;7.00;99.90;;;;;;5094403;28;20059;-75
2023/03/27 05:22:06;;;;;;;0.10;0.10;;;7.00;99.90;;;;;;5094519;28;20456;-75
2023/03/27 05:24:32;;;;;;;0.20;0.20;;;7.00;99.90;;;;;;5095358;28;20028;-74
2023/03/27 05:26:58;;;;;;;0.17;0.13;;;7.00;99.90;;;;;;5077497;28;20028;-74
2023/03/27 05:29:24;;;;;;;0.30;0.30;;;7.00;99.90;;;;;;5077218;28;20024;-74
2023/03/27 05:31:50;;;;;;;0.15;0.13;;;7.00;99.90;;;;;;5077392;28;20115;-74
2023/03/27 05:34:18;;;;;;;2.47;0.20;;;7.00;99.90;;;;;;5096289;28;20051;-75
2023/03/27 05:36:45;;;;;;;2.05;0.20;;;7.00;99.90;;;;;;5077931;28;20368;-74
2023/03/27 05:39:11;;;;;;;1.17;0.10;;;7.00;99.90;;;;;;5095496;28;20024;-74
2023/03/27 05:41:37;;;;;;;0.35;0.10;;;7.00;99.90;;;;;;5077367;28;20036;-75
2023/03/27 05:44:03;;;;;;;1.15;0.20;;;7.00;99.90;;;;;;5077585;28;20053;-74
2023/03/27 05:46:28;;;;;;;0.85;0.17;;;7.00;99.90;;;;;;5094884;28;20081;-74
2023/03/27 05:48:58;;;;;;;1.58;0.20;;;7.00;99.90;;;;;;5095259;28;20425;-74
2023/03/27 05:51:24;;;;;;;0.10;0.08;;;7.00;99.90;;;;;;5076897;28;20032;-74
2023/03/27 05:53:50;;;;;;;1.38;0.10;;;7.00;99.90;;;;;;5077647;28;20056;-74
2023/03/27 05:56:16;;;;;;;2.08;0.10;;;7.00;99.90;;;;;;5096348;28;20073;-74
2023/03/27 05:58:41;;;;;;;0.00;0.00;;;7.00;99.90;;;;;;5095171;28;20024;-74
2023/03/27 06:01:09;;;;;;;4.00;0.15;;;6.90;99.90;;;;;;5094852;28;20384;-74
2023/03/27 06:03:37;;;;;;;0.20;0.00;;;6.90;99.90;;;;;;5077559;28;20467;-74
2023/03/27 06:06:10;;;;;;;0.35;0.10;;;6.90;99.90;;;;;;5095325;28;20027;-74
2023/03/27 06:08:37;;;;;;;1.30;0.55;;;6.90;99.90;;;;;;5095718;28;20032;-74
2023/03/27 06:11:10;;;;;;;0.45;0.00;;;6.90;99.90;;;;;;5077007;28;20031;-74
2023/03/27 06:13:36;;;;;;;0.50;0.15;;;7.00;99.90;;;;;;5096073;28;20024;-74
2023/03/27 06:16:04;;;;;;;0.00;0.00;;;7.00;99.90;;;;;;5076826;28;20024;-75
2023/03/27 06:18:31;;;;;;;0.20;0.00;;;7.00;99.90;;;;;;5076434;28;20035;-73
2023/03/27 06:20:57;;;;;;;1.27;0.10;;;7.10;99.90;;;;;;5095265;28;20031;-74
2023/03/27 06:23:22;;;;;;;3.30;0.10;;;7.10;99.90;;;;;;5076727;28;20032;-74
2023/03/27 06:25:50;;;;;;;3.00;0.10;;;7.20;99.90;;;;;;5076555;28;20024;-74
2023/03/27 06:28:15;;;;;;;0.52;0.15;;;7.20;99.90;;;;;;5094544;28;20483;-74
2023/03/27 06:30:41;;;;;;;1.35;0.30;;;7.20;99.90;;;;;;5094245;28;20028;-75
2023/03/27 06:33:08;;;;;;;0.30;0.10;;;7.20;99.90;;;;;;5076478;28;20028;-74
2023/03/27 06:35:34;;;;;;;0.65;0.00;;;7.20;99.90;;;;;;5076192;28;20456;-74
2023/03/27 06:38:03;;;;;;;1.33;0.10;;;7.10;99.90;;;;;;5094208;28;20085;-75
2023/03/27 06:40:30;;;;;;;0.65;0.10;;;7.20;99.90;;;;;;5093642;28;20024;-74
2023/03/27 06:43:00;;;;;;;0.00;0.00;;;7.20;99.90;;;;;;5094490;28;20471;-74
2023/03/27 06:45:28;;;;;;;0.35;0.10;;;7.10;99.90;;;;;;5094004;28;20012;-74
2023/03/27 06:47:57;;;;;;;1.10;0.10;;;7.10;99.90;;;;;;5076080;28;20089;-74
2023/03/27 06:50:24;;;;;;;0.77;0.20;;;7.20;99.90;;;;;;5076228;28;20028;-74
2023/03/27 06:52:50;;;;;;;0.25;0.10;;;7.20;99.90;;;;;;5075801;28;20113;-74
2023/03/27 06:55:17;;;;;;;1.27;0.10;;;7.20;99.90;;;;;;5094143;28;20436;-74
2023/03/27 06:57:45;;;;;;;0.15;0.10;;;7.10;99.90;;;;;;5093851;28;20064;-75
2023/03/27 07:00:15;;;;;;;0.50;0.20;;;7.10;99.90;;;;;;5075976;28;20028;-74
2023/03/27 07:02:41;;;;;;;0.47;0.13;;;7.20;99.90;;;;;;5093834;28;20101;-74
2023/03/27 07:05:07;;;;;;;0.13;0.10;;;7.20;99.90;;;;;;5094162;28;20047;-75
2023/03/27 07:07:33;;;;;;;0.90;0.15;;;7.20;99.90;;;;;;5075973;28;20457;-74
2023/03/27 07:09:59;;;;;;;0.60;0.10;;;7.20;99.90;;;;;;5075830;28;20024;-74
2023/03/27 07:12:25;;;;;;;0.00;0.00;;;7.10;99.90;;;;;;5075955;28;20031;-74
2023/03/27 07:14:51;;;;;;;1.30;0.20;;;7.10;99.90;;;;;;5094151;28;20460;-74
2023/03/27 07:17:17;;;;;;;2.00;0.20;;;7.10;99.90;;;;;;5094113;28;20028;-74
2023/03/27 07:19:42;;;;;;;1.35;0.10;;;7.10;99.90;;;;;;5094161;28;20036;-74
2023/03/27 07:22:08;;;;;;;0.10;0.10;;;7.10;99.90;;;;;;5094328;28;20030;-74
2023/03/27 07:24:34;;;;;;;0.28;0.28;;;7.10;99.90;;;;;;5076023;28;20035;-75
2023/03/27 07:27:00;;;;;;;2.05;0.20;;;7.10;99.90;;;;;;5076206;28;20024;-76
2023/03/27 07:29:26;;;;;;;0.47;0.15;;;7.10;99.90;;;;;;5077003;28;20024;-76
2023/03/27 07:31:51;;;;;;;0.25;0.10;;;7.00;99.90;;;;;;5079752;28;20028;-76
2023/03/27 07:34:17;;;;;;;0.73;0.20;;;6.90;99.90;;;;;;5099383;28;20452;-77
2023/03/27 07:36:43;;;;;;;1.05;0.15;;;6.90;99.90;;;;;;5081904;28;20082;-77
2023/03/27 07:39:11;;;;;;;3.17;0.38;;;6.80;99.90;;;;;;5100060;28;20459;-77
2023/03/27 07:41:37;;;;;;;2.22;0.50;;;6.80;99.90;;;;;;5081019;28;20428;-77
2023/03/27 07:44:03;;;;;;;1.23;0.30;;;6.80;99.90;;;;;;5099107;28;20077;-77
2023/03/27 07:46:29;;;;;;;1.80;0.60;;;6.80;99.90;;;;;;5079367;28;20383;-77
2023/03/27 07:48:55;;;;;;;0.85;0.60;;;6.80;99.90;;;;;;5079715;28;20361;-77
2023/03/27 07:51:22;;;;;;;1.15;0.60;;;6.70;99.90;;;;;;5079729;28;20432;-78
2023/03/27 07:53:52;;;;;;;1.02;0.50;;;6.70;99.90;;;;;;5079897;28;20091;-77
2023/03/27 07:56:19;;;;;;;1.52;0.60;;;6.60;99.90;;;;;;5078890;28;20039;-76
2023/03/27 07:58:45;;;;;;;2.33;1.50;;;6.70;99.90;;;;;;5096720;28;20028;-76
2023/03/27 08:01:12;;;;;;;5.65;1.23;;;6.90;99.90;;;;;;5078451;28;20020;-76
2023/03/27 08:03:37;;;;;;;1.48;0.90;;;6.90;99.90;;;;;;5096922;28;20055;-76
2023/03/27 08:06:05;;;;;;;2.90;1.20;;;7.00;99.90;;;;;;5096759;28;20456;-75
2023/03/27 08:08:32;;;;;;;1.40;1.30;;;7.00;99.90;;;;;;5096642;28;20024;-75
2023/03/27 08:11:00;;;;;;;10.23;1.65;;;7.00;99.90;;;;;;5079445;28;20380;-75
2023/03/27 08:13:26;;;;;;;5.60;1.48;;;7.00;99.90;;;;;;5078597;28;20024;-75
2023/03/27 08:16:02;;;;;;;4.82;1.50;;;6.90;99.90;;;;;;5096457;28;20482;-75
2023/03/27 08:18:27;;;;;;;1.75;1.65;;;7.00;99.90;;;;;;5078938;28;20505;-75
2023/03/27 08:20:57;;;;;;;3.83;2.30;;;7.00;99.90;;;;;;5078246;28;20229;-74
2023/03/27 08:23:26;;;;;;;4.15;2.22;;;7.00;99.90;;;;;;5096578;28;20028;-74
2023/03/27 08:25:59;;;;;;;2.33;1.90;;;7.10;99.90;;;;;;5096681;28;20121;-75
2023/03/27 08:28:29;;;;;;;7.03;2.50;;;7.10;99.90;;;;;;5078737;28;20498;-75
2023/03/27 08:30:56;;;;;;;3.38;2.47;;;7.10;99.90;;;;;;5096441;28;20106;-75
2023/03/27 08:33:22;;;;;;;3.50;2.92;;;7.10;99.90;;;;;;5096577;28;20024;-75
2023/03/27 08:35:49;;;;;;;4.88;2.38;;;7.10;99.90;;;;;;5078808;28;20118;-75
2023/03/27 08:38:14;;;;;;;3.80;2.20;;;7.00;99.90;;;;;;5078296;28;20123;-75
2023/03/27 08:40:46;;;;;;;3.55;2.17;;;6.90;99.90;;;;;;5078348;28;20127;-75
2023/03/27 08:43:17;;;;;;;2.92;2.00;;;7.00;99.90;;;;;;5079014;28;20479;-75
2023/03/27 08:45:52;;;;;;;3.42;1.65;;;7.00;99.90;;;;;;5096589;28;20023;-75
2023/03/27 08:48:22;;;;;;;2.20;2.00;;;7.00;99.90;;;;;;5077875;28;20032;-75
2023/03/27 08:51:03;;;;;;;3.08;1.55;;;7.10;99.90;;;;;;5077960;28;20041;-75
2023/03/27 08:53:38;;;;;;;2.28;1.80;;;7.10;99.90;;;;;;5074707;28;20072;-75
2023/03/27 08:56:04;;;;;;;1.98;1.83;;;7.10;99.90;;;;;;5075669;28;20475;-75
2023/03/27 08:58:31;;;;;;;1.88;1.67;;;7.10;99.90;;;;;;5075016;28;20361;-76
2023/03/27 09:01:16;;;;;;;1.70;1.60;;;7.00;99.90;;;;;;5076539;28;20028;-75
2023/03/27 09:03:50;;;;;;;1.63;1.10;;;6.90;99.90;;;;;;5075697;28;20025;-76
2023/03/27 09:06:24;;;;;;;0.43;0.40;;;6.80;99.90;;;;;;5075498;28;20078;-76
2023/03/27 09:09:20;;;;;;;1.70;0.70;;;6.40;99.90;;;;;;5075554;28;20070;-78
2023/03/27 09:12:51;;;;;;;2.17;0.93;;;6.20;99.90;;;;;;5064564;28;20086;-78
2023/03/27 09:15:26;;;;;;;0.80;0.30;;;5.90;99.90;;;;;;5014170;28;20022;-79
2023/03/27 09:18:04;;;;;;;1.48;0.47;;;5.50;99.90;;;;;;4997260;28;20474;-78
2023/03/27 09:20:40;;;;;;;0.28;0.20;;;5.30;99.90;;;;;;5043785;28;20032;-79
2023/03/27 09:23:23;;;;;;;0.40;0.20;;;5.10;99.90;;;;;;5074140;28;20029;-78
2023/03/27 09:25:54;;;;;;;0.30;0.30;;;5.00;99.90;;;;;;5075051;28;20552;-78
2023/03/27 09:28:28;;;;;;;0.47;0.40;;;4.90;99.90;;;;;;5074390;28;20082;-78
2023/03/27 09:30:54;;;;;;;0.28;0.22;;;4.80;99.90;;;;;;5073831;28;20025;-77
2023/03/27 09:33:20;;;;;;;0.20;0.10;;;4.70;99.90;;;;;;5074128;28;20025;-79
2023/03/27 09:35:46;;;;;;;0.20;0.20;;;4.60;99.90;;;;;;5075499;28;20035;-77
2023/03/27 09:38:30;;;;;;;0.90;0.20;;;4.60;99.90;;;;;;5073866;28;20035;-76
2023/03/27 09:40:58;;;;;;;0.50;0.30;;;4.40;99.90;;;;;;5075055;28;20473;-76
2023/03/27 09:43:28;;;;;;;0.20;0.20;;;4.30;99.90;;;;;;5073334;28;20028;-75
2023/03/27 09:45:56;;;;;;;0.30;0.28;;;4.30;99.90;;;;;;5074516;28;20354;-75
2023/03/27 09:48:52;;;;;;;0.30;0.20;;;4.30;99.90;;;;;;5073878;28;20051;-75
2023/03/27 09:51:39;;;;;;;0.65;0.32;;;4.30;99.90;;;;;;5074451;28;20107;-75
2023/03/27 09:54:06;;;;;;;1.17;0.30;;;4.40;99.90;;;;;;5074778;28;20043;-75
2023/03/27 09:56:37;;;;;;;1.27;0.35;;;4.40;99.90;;;;;;5075177;28;20029;-74
2023/03/27 09:59:19;;;;;;;2.47;0.30;;;4.50;99.90;;;;;;5075673;28;20035;-75
2023/03/27 10:01:48;;;;;;;0.80;0.52;;;4.60;99.90;;;;;;5074600;28;20032;-75
2023/03/27 10:04:17;;;;;;;0.77;0.60;;;4.60;99.90;;;;;;5074748;28;20028;-75
2023/03/27 10:06:47;;;;;;;3.03;0.60;;;4.70;99.90;;;;;;5075114;28;20031;-75
2023/03/27 10:09:24;;;;;;;0.70;0.70;;;4.40;99.90;;;;;;5073984;28;20368;-76
2023/03/27 10:11:58;;;;;;;1.05;0.88;;;4.30;99.90;;;;;;5074511;28;20363;-75
2023/03/27 10:14:25;;;;;;;1.27;0.80;;;4.20;99.90;;;;;;5074235;28;20391;-75
2023/03/27 10:16:51;;;;;;;3.53;1.02;;;4.10;99.90;;;;;;5074497;28;20058;-76
2023/03/27 10:19:22;;;;;;;1.17;0.98;;;4.00;99.90;;;;;;5073394;28;20054;-75
2023/03/27 10:21:48;;;;;;;1.83;1.73;;;3.90;99.90;;;;;;5074228;28;20078;-75
2023/03/27 10:24:18;;;;;;;2.92;1.52;;;3.90;99.90;;;;;;5073138;28;20032;-75
2023/03/27 10:26:47;;;;;;;3.33;1.60;;;3.80;99.90;;;;;;5073912;28;20031;-75
2023/03/27 10:29:27;;;;;;;11.27;3.53;;;3.80;99.90;;;;;;5074750;28;20025;-75
2023/03/27 10:31:56;;;;;;;1.60;1.50;;;3.70;99.90;;;;;;5075432;28;20028;-75
2023/03/27 10:34:42;;;;;;;1.60;1.33;;;3.60;99.90;;;;;;5074985;28;20028;-74
2023/03/27 10:37:39;;;;;;;1.98;1.88;;;3.60;99.90;;;;;;5075081;28;20120;-74
2023/03/27 10:40:08;;;;;;;2.35;1.80;;;3.60;99.90;;;;;;5057860;28;20040;-75
2023/03/27 10:42:35;;;;;;;2.17;1.90;;;3.50;99.90;;;;;;5074536;28;20107;-74
2023/03/27 10:45:02;;;;;;;2.47;2.22;;;3.50;99.90;;;;;;5073822;28;20032;-74
2023/03/27 10:47:32;;;;;;;2.00;1.90;;;3.50;99.90;;;;;;5074188;28;20060;-75
2023/03/27 10:50:07;;;;;;;6.25;2.75;;;3.50;99.90;;;;;;5074849;28;20033;-75
2023/03/27 10:52:47;;;;;;;2.90;2.10;;;3.50;99.90;;;;;;5072648;28;20444;-75
2023/03/27 10:55:32;;;;;;;3.00;2.70;;;3.40;99.90;;;;;;5072879;28;20028;-76
2023/03/27 10:58:05;;;;;;;2.75;2.08;;;3.30;99.90;;;;;;5072678;28;20534;-76
2023/03/27 11:00:37;;;;;;;2.20;2.10;;;3.20;99.90;;;;;;5072354;28;20025;-76
2023/03/27 11:03:14;;;;;;;3.70;2.33;;;3.00;99.90;;;;;;5074346;28;20028;-76
2023/03/27 11:05:48;;;;;;;6.20;2.05;;;2.90;99.90;;;;;;5077477;28;20112;-76
2023/03/27 11:08:22;;;;;;;5.57;2.40;;;2.90;99.90;;;;;;5078063;28;20025;-76
2023/03/27 11:10:49;;;;;;;6.63;2.47;;;2.90;99.90;;;;;;5069667;28;20025;-75
2023/03/27 11:13:30;;;;;;;3.13;2.50;;;3.00;99.90;;;;;;5065864;28;20044;-76
2023/03/27 11:16:46;;;;;;;3.17;2.63;;;3.00;99.90;;;;;;5066974;28;20144;-77
2023/03/27 11:19:24;;;;;;;2.92;2.72;;;3.00;99.90;;;;;;5004218;28;20057;-75
2023/03/27 11:22:01;;;;;;;5.80;2.67;;;3.00;99.90;;;;;;5056348;28;20033;-75
2023/03/27 11:24:39;;;;;;;2.55;2.35;;;3.10;99.90;;;;;;5069368;28;20588;-76
2023/03/27 11:27:34;;;;;;;2.55;2.35;;;3.20;99.90;;;;;;5069574;28;20037;-75
2023/03/27 11:30:18;;;;;;;4.13;2.08;;;3.40;99.90;;;;;;5054400;28;20173;-75
2023/03/27 11:32:57;;;;;;;4.30;2.53;;;3.50;99.90;;;;;;5076659;28;20031;-74
2023/03/27 11:35:27;;;;;;;3.72;2.10;;;3.60;99.90;;;;;;5078989;28;20157;-74
2023/03/27 11:37:58;;;;;;;2.45;2.25;;;3.60;99.90;;;;;;5078735;28;20055;-74
2023/03/27 11:40:41;;;;;;;2.90;2.35;;;3.70;99.90;;;;;;5077657;28;20141;-74
2023/03/27 11:43:11;;;;;;;3.67;2.35;;;3.70;99.90;;;;;;5077955;28;20025;-73
2023/03/27 11:46:10;;;;;;;2.30;2.20;;;3.90;99.90;;;;;;5077147;28;20028;-74
2023/03/27 11:49:15;;;;;;;8.98;2.58;;;3.90;99.90;;;;;;5075835;28;20024;-74
2023/03/27 11:51:53;;;;;;;3.55;2.28;;;4.00;99.90;;;;;;5077694;28;20104;-74
2023/03/27 11:55:05;;;;;;;4.03;2.42;;;4.10;99.90;;;;;;5078624;28;20475;-74
2023/03/27 11:57:47;;;;;;;3.08;1.95;;;4.20;99.90;;;;;;5078962;28;20039;-74
2023/03/27 12:00:43;;;;;;;2.30;2.10;;;4.30;99.90;;;;;;5096748;28;20031;-66
2023/03/27 12:03:33;;;;;;;2.13;1.73;;;4.40;99.90;;;;;;5083598;28;20406;-68
2023/03/27 12:06:28;;;;;;;3.10;1.77;;;4.90;99.90;;;;;;5097036;28;20078;-68
2023/03/27 12:09:09;;;;;;;4.85;1.70;;;5.20;99.90;;;;;;5079241;28;20016;-66
2023/03/27 12:11:41;;;;;;;2.72;1.60;;;5.40;99.90;;;;;;5097177;28;20012;-73
2023/03/27 12:14:19;;;;;;;2.20;1.70;;;5.20;99.90;;;;;;5078561;28;20020;-72
2023/03/27 12:17:10;;;;;;;2.80;1.93;;;5.10;99.90;;;;;;5078096;28;20027;-73
2023/03/27 12:19:44;;;;;;;7.15;2.00;;;5.00;99.90;;;;;;5096961;28;20024;-72
2023/03/27 12:22:16;;;;;;;2.55;1.65;;;5.00;99.90;;;;;;5078294;28;20028;-71
2023/03/27 12:25:11;;;;;;;3.83;1.52;;;5.00;99.90;;;;;;5096235;28;20095;-72
2023/03/27 12:27:52;;;;;;;3.38;1.67;;;5.00;99.90;;;;;;5078521;28;20024;-72
2023/03/27 12:30:31;;;;;;;5.40;1.77;;;5.00;99.90;;;;;;5096632;28;20098;-72
2023/03/27 12:33:21;;;;;;;2.30;1.10;;;5.10;99.90;;;;;;5078536;28;20110;-71
2023/03/27 12:35:50;;;;;;;3.40;1.25;;;5.20;99.90;;;;;;5096318;28;20099;-70
2023/03/27 12:38:36;;;;;;;1.63;1.00;;;5.30;99.90;;;;;;5096109;28;20127;-71
2023/03/27 12:41:12;;;;;;;1.48;1.25;;;5.40;99.90;;;;;;5096025;28;20021;-72
2023/03/27 12:43:43;;;;;;;2.03;0.90;;;5.50;99.90;;;;;;5078410;28;20027;-71
2023/03/27 12:46:27;;;;;;;1.17;1.00;;;5.70;98.20;;;;;;5078162;28;20503;-72
2023/03/27 12:48:53;;;;;;;3.47;1.00;;;5.80;99.50;;;;;;5096037;28;20020;-73
2023/03/27 12:51:33;;;;;;;1.33;0.90;;;5.90;96.40;;;;;;5096484;28;20030;-72
2023/03/27 12:54:20;;;;;;;2.92;1.45;;;5.90;95.50;;;;;;5099673;28;20067;-73
2023/03/27 12:57:19;;;;;;;4.90;1.20;;;6.00;96.40;;;;;;5078304;28;20043;-72
2023/03/27 12:59:47;;;;;;;;;;;6.10;95.10;;;;;;5075575;28;20032;-72
2023/03/27 13:02:51;;;;;;;2.67;1.38;;;6.30;95.40;;;;;;5077812;28;19900;-71
2023/03/27 13:05:35;;;;;;;3.13;1.20;;;6.30;94.50;;;;;;5095851;28;20022;-71
2023/03/27 13:08:33;;;;;;;1.73;1.02;;;6.30;92.60;;;;;;5077567;28;20455;-72
2023/03/27 13:11:24;;;;;;;6.28;1.50;;;6.40;93.20;;;;;;5095623;28;20020;-72
2023/03/27 13:14:18;;;;;;;1.55;1.00;;;6.50;93.00;;;;;;5077481;28;20027;-71
2023/03/27 13:17:11;;;;;;;1.63;0.80;;;6.60;89.70;;;;;;5077531;28;20093;-71
2023/03/27 13:19:57;;;;;;;1.30;0.90;;;6.60;88.90;;;;;;5095859;28;20024;-72
2023/03/27 13:22:48;;;;;;;1.77;0.90;;;6.70;86.40;;;;;;5077725;28;20115;-72
2023/03/27 13:25:42;;;;;;;2.22;0.85;;;6.80;83.80;;;;;;5077358;28;20029;-71